Stanleyville, North Carolina
Current Conditions -  °F | °C
As of 6:54 PM on Wednesday 28 Jan 2015 (Local Time) from KINT Reporting Station
Clear Clear  
Wind Chill: 37°   Ceiling: Unl
Heat Index: 37°   Visibility: 10mi
Dew Point: 14°   Wind: 0mph
Humidity: 39%   Direction: NA
Pressure: 30.27"   Gusts: NA
Location:  36.2334°N, 80.2983°W
Report Text: KINT 282354Z 00000KT 10SM CLR 03/M10 A3027 RMK AO2 SLP255 T00281100 10078 20022 52016
Loading
Personal Weather Stations






























Interactive Weather Map New forecast layout! Learn more

10-Day Weather Forecast

Advertisements
Track Severe Weather on mobile